map of GTR home
GTR - Airport
Location
City:  Columbus/West Point/Starkville, Mississippi, United States
Name:Golden Triangle Regional
ICAO:KGTR
IATA:GTR
FAA LID:GTR

Details
Type:Airport (Part 139 Class I)
Use:Public/Civil
Latitude:3326'54"N (33.448278)
Longitude:8835'29"W (-88.591388)
Datum:WGS 1984
Elevation:264 ft (80 m)
Variation:2.18W (WMM2015 magnetic declination)
-0.10 annual change
Runways:1
Longest:8003 × 150 ft (2439 × 45.5 m), paved

Time
Time Zone:UTC-6 (DST-5)
Local Time:

Weather
METAR:KGTR 142356Z 34007KT 10SM CLR 11/01 A3001 RMK AO2 SLP164 6//// T01110011 10161 20111
TAF:KGTR 142337Z 1500/1524 36005KT P6SM SKC

Related Locations
Nearby:
Farthest:MQZ: 11082 mi / 17834 km
Margaret River [Margaret River Airport], WA, AU

Find:

   beyond  
but within

Other Information
Maps:
NOTAMs:
Links:
Sources:

  
flag of United States
flag of Mississippi
  

Airport Diagram

Airport diagram for GTR

Airport diagram PDF

Sectional Chart

Flight Planning
at skyvector.com

Satellite Image

Google Maps Satellite view

 

Copyright © 2004-2017 Karl L. Swartz. All rights reserved.
The Great Circle Mapper name and logo are trademarks of the Great Circle Mapper.
All other trademarks mentioned herein belong to their respective owners.
Please see credits for attibutions and further copyright information.

  Follow gcmap on Facebook Follow gcmap on Twitter Follow gcmap on Google+ GCmap on LinkedIn

hCard Microformat

Geo Microformat